Terminal Aerodrome Forecast
Issued by NWS

Home | Current Version | Previous Version | Text Only | Print | Product List | Glossary On
Versions: 1 2 3 4 5 6 7 8 9 10 11 12 13 14 15 16 17 18 19 20 21 22 23 24 25 26 27 28 29
000
FTUS44 KFWD 281138
TAFDAL
TAF
KDAL 281138Z 2812/2912 10010KT P6SM OVC015
      TEMPO 2814/2818 6SM -DZ BR BKN007
     FM281800 14014KT P6SM VCSH BKN025
     FM290000 15013KT P6SM VCTS SCT035CB BKN050
     FM290300 15013KT P6SM SCT035 BKN050
     FM290700 15015KT 5SM TSRA OVC035CB
     FM291000 18013KT P6SM SCT040=

USA.gov is the U.S. government's official web portal to all federal, state and local government web resources and services.